Alamo, TN

1:36 PM CDT on September 02, 2015 (GMT -0500)
DW1566 | | Change Station
CLOSE
Current Station
Personal Weather Station
Location: Humboldt, TN
Elevation: 410 ft
Nearby Weather Stations

Elev 410 ft 35.88 °N, 89.02 °W | Updated 19 seconds ago

Clear
Clear
89.9 °F
Feels Like 97 °F
N
7.4
Wind Variable Wind from NE
Gusts 7.4 mph

Today
High -- | Low -- °F
--% Chance of Precip.
Yesterday
High -- | Low -- °F
Precip. -- in
6:29 AM 7:22 PM
Waning Gibbous, 78% visible
Pressure 30.06 in
Visibility 10.0 miles
Clouds Few 4200 ft
Heat Index 97 °F
Dew Point 72 °F
Humidity 56%
Rainfall 0.00 in
Snow Depth Not available.
UV 10 out of 12
Pollen 9.30 out of 12
Air Quality Not available.
Flu Activity Not available.
METAR KMKL 021753Z 09004KT 10SM FEW042 31/21 A3008 RMK AO2 SLP179 T03110211 10317 20211 58015
Pressure 30.06 in
Visibility 10.0 miles
Clouds Few 4200 ft
Heat Index 97 °F
Dew Point 72 °F
Humidity 56%
Rainfall 0.00 in
Snow Depth Not available.
UV 10 out of 12
Pollen 9.30 out of 12
Air Quality Not available.
Flu Activity Not available.
METAR KMKL 021753Z 09004KT 10SM FEW042 31/21 A3008 RMK AO2 SLP179 T03110211 10317 20211 58015

10-Day Weather Forecast

×

Almanac

Astronomy

Sep. 02, 2015 Rise Set
Actual Time
Civil Twilight
Nautical Twilight
Astronomical Twilight
Moon
Length of Visible Light
Length of Day
Tomorrow will be .
, % of the Moon is Illuminated

Today's Extremes

State Highs State Lows

Community

WunderPhotos

Upload Photos

1,851,793 photos uploaded!

WunderBlogs® & News

Nearby

Air Quality

  Air Quality AQ Index Pollutant
Not available.

Snow Depth

Station Depth Elevation

Earthquake Activity

City Distance Mag. Time & Date
Minimum magnitude displayed is 2.5.

Coastal Water Temperatures

Place Temperature

Stations

Nearby Weather Stations

Station Location Temp. Windchill Dew Point Humidity Wind Precip. Elev Updated Type